Historyczne dane pomiarowe

Dodano dane terminowe – wersja testowa.

Dane z okresu 1951-2019

Wersja bazy: 1.34 [2019-03-16, lista zmian], aktualizacja planowana na 2019-04-15

Dane meteo z obszaru Polski uzyskane na podstawie danych udostępnionych przez Instytut Meteorologii i Gospodarki Wodnej – Państwowy Instytut Badawczy.

 

Wybierz Datę:    

       

TemperaturaWilgotnośćWiatrCiśnienieOpadyŚniegCzas trwania zjawisk
 Stacja t tx tn tng RH VA  wxwx mslp ppp RRR   cm mm wxwxwxwxwxwxwx
1987-08-14 14.5 20.6 7.7 5.9 81.5- 7.7 1.3---- 1.8------------
1987-08-13 13.0 19.1 9.3 8.8 89.0- 6.7 2.0---- 0.0------------
1987-08-12 11.8 14.5 8.1 7.6 87.0- 8.0 5.7---- 3.5------------
1987-08-11 13.7 18.0 11.9 10.9 77.5- 5.7 3.7---- 0.0------------
1987-08-10 14.2 17.5 10.9 9.4 88.8- 8.0 4.0---- 8.5------------
1987-08-09 16.3 21.7 8.9 6.0 73.8- 7.0 1.3---- 2.5------------
1987-08-08 13.5 20.5 6.6 3.4 71.0- 2.0 2.7---- 0.0------------
1987-08-07 13.2 18.0 9.9 6.9 74.0- 4.3 3.3---- 0.0------------
1987-08-06 11.1 17.3 5.0 3.5 82.3- 5.0 2.0---- 0.1------------
1987-08-05 11.8 17.9 4.9 3.1 78.0- 4.3 2.7---- 0.0------------
1987-08-04 12.3 19.0 6.3 5.0 82.3- 6.0 1.7---- 1.1------------
1987-08-03 12.9 18.0 9.2 7.9 79.3- 5.7 2.0---- 0.9------------
1987-08-02 15.2 18.3 12.4 11.3 75.5- 3.7 2.3---- 4.7------------
1987-08-01 15.0 21.0 9.8 7.9 82.3- 7.3 3.7---- 8.4------------
1987-07-31 13.9 17.4 10.8 9.4 93.0- 7.7 1.3---- 8.6------------
1987-07-30 15.3 21.7 8.6 6.9 74.8- 4.0 1.3---- 0.0------------
1987-07-29 13.6 17.7 10.7 8.5 88.5- 7.0 1.7---- 0.6------------
1987-07-28 14.0 19.4 10.6 10.3 79.8- 7.0 2.7---- 1.3------------
1987-07-27 11.8 16.5 7.8 5.7 78.3- 6.3 4.0---- 9.5------------
1987-07-26 14.0 19.0 11.3 8.2 84.3- 8.0 2.3---- 2.7------------
1987-07-25 17.2 21.7 12.2 10.8 78.5- 5.0 2.0---- 0.0------------
1987-07-24 18.6 25.4 12.7 11.9 82.3- 6.7 1.3---- 0.0------------
1987-07-23 19.7 25.8 15.8 14.4 88.8- 6.3 0.7---- 1.2------------
1987-07-22 20.3 26.1 13.3 12.3 84.0- 5.0 1.0---- 0.0------------
1987-07-21 19.3 24.0 16.7 16.8 82.0- 5.7 1.3---- 0.0------------
1987-07-20 18.8 25.5 14.9 14.4 75.0- 8.0 3.0---- 1.2------------
1987-07-19 17.9 24.0 12.0 10.2 66.8- 3.3 5.7---- 0.3------------
1987-07-18 19.6 24.9 15.2 14.0 70.5- 1.3 4.7---- 0.0------------
1987-07-17 18.5 24.2 12.3 10.9 69.8- 5.0 5.3---- 0.0------------
1987-07-16 16.3 23.1 7.6 6.0 74.5- 4.3 2.3---- 0.0------------
1987-07-15 15.2 22.0 6.9 5.0 71.5- 2.0 1.7---- 0.0------------
1987-07-14 13.7 18.6 9.3 6.3 83.5- 7.3 2.3---- 0.0------------
1987-07-13 15.7 20.1 12.2 10.4 83.3- 6.7 3.3---- 0.6------------
1987-07-12 15.2 17.6 12.0 11.8 96.0- 8.0 1.7---- 44.4------------
1987-07-11 11.8 16.8 8.2 5.8 86.3- 8.0 0.7---- 11.1------------
1987-07-10 14.2 19.3 10.3 8.6 72.5- 4.0 4.0---- 0.5------------
1987-07-09 17.3 21.8 15.2 13.9 87.3- 8.0 1.7---- 2.2------------
1987-07-08 20.8 28.7 10.3 8.8 58.8- 2.7 1.3---- 0.4------------
1987-07-07 19.2 26.8 8.1 6.2 62.5- 0.3 1.3---- 0.0------------
1987-07-06 16.0 23.9 5.8 4.0 65.5- 1.3 1.7---- 0.0------------
1987-07-05 15.3 22.5 9.0 7.6 70.3- 4.0 2.3---- 0.0------------
1987-07-04 15.6 21.1 8.3 6.2 70.0- 0.7 2.0---- 0.0------------
1987-07-03 15.7 22.5 7.2 6.8 64.5- 0.7 3.0---- 0.0------------
1987-07-02 19.2 26.0 15.5 10.0 69.3- 4.0 3.7---- 0.0------------
1987-07-01 24.4 30.6 17.7 15.0 76.5- 4.7 3.0---- 0.0------------
1987-06-30 22.0 26.8 18.7 16.2 78.5- 3.3 2.3---- 0.0------------
1987-06-29 15.7 23.0 5.0 3.1 73.5- 4.0 2.3---- 0.0------------
1987-06-28 14.0 19.0 8.9 7.8 88.0- 5.3 2.7---- 3.1------------
1987-06-27 17.3 21.3 15.3 12.9 80.5- 7.3 1.7---- 0.1------------
1987-06-26 16.4 20.7 6.4 3.1 74.5- 5.0 2.7---- 0.0------------
1987-06-25 12.4 16.3 8.2 5.5 91.5- 6.0 2.0---- 2.6------------
1987-06-24 16.3 21.1 12.3 8.9 76.0- 5.3 3.0---- 3.5------------
1987-06-23 17.3 23.7 11.4 8.2 75.5- 6.3 1.7---- 0.0------------
1987-06-22 17.7 24.2 8.2 6.1 67.0- 4.7 1.0---- 0.0------------
1987-06-21 15.8 23.4 8.1 5.9 73.3- 3.0 1.3---- 0.0------------
1987-06-20 14.8 21.4 5.0 2.1 67.0- 2.3 3.0---- 0.0------------
1987-06-19 12.4 16.9 5.9 2.7 74.5- 4.3 3.0---- 0.0------------
1987-06-18 11.8 17.9 3.7 0.8 67.8- 3.7 2.7---- 0.0------------
1987-06-17 12.8 15.1 10.8 9.4 77.3- 5.0 2.3---- 0.0------------
1987-06-16 16.1 24.0 10.5 12.4 88.8- 7.7 4.0---- 5.0------------
430.8 ms

 

Źródłem pochodzenia danych jest Instytut Meteorologii i Gospodarki Wodnej – Państwowy Instytut Badawczy. Dane Instytutu Meteorologii i Gospodarki Wodnej – Państwowego Instytutu Badawczego zostały przetworzone.

Dane źródłowe można odnaleźć na stronie https://dane.imgw.pl